Time;durP1;ratioP1;P1;durP2;ratioP2;P2;SDS_P1;SDS_P2;PMS_P1;PMS_P2;Temp;Humidity;BMP_temperature;BMP_pressure;BME280_temperature;BME280_humidity;BME280_pressure;Samples;Min_cycle;Max_cycle;Signal;HPM_P1;HPM_P2
2023/12/31 00:00:34;;;;;;;2.23;1.67;;;2.80;99.90;3.00;100281.00;;;;4904532;28;88126;-71
2023/12/31 00:03:00;;;;;;;5.33;3.07;;;3.40;99.90;3.00;100276.00;;;;4907132;28;88263;-71
2023/12/31 00:05:27;;;;;;;7.13;2.63;;;4.10;99.90;2.90;100278.00;;;;4886904;28;88314;-70
2023/12/31 00:07:52;;;;;;;2.83;2.63;;;3.30;99.90;2.80;100273.00;;;;4901002;28;111178;-71
2023/12/31 00:10:18;;;;;;;2.93;2.30;;;3.20;99.90;2.80;100269.00;;;;4901073;28;108762;-71
2023/12/31 00:12:44;;;;;;;6.23;2.50;;;3.10;99.90;2.70;100267.00;;;;4901385;28;88859;-71
2023/12/31 00:15:10;;;;;;;3.63;2.37;;;3.00;99.90;2.70;100270.00;;;;4904356;28;113524;-71
2023/12/31 00:17:36;;;;;;;6.33;3.07;;;3.00;99.90;2.60;100244.00;;;;4903242;28;88531;-71
2023/12/31 00:20:03;;;;;;;2.07;1.87;;;2.90;99.90;2.60;100244.00;;;;4906482;28;87758;-71
2023/12/31 00:22:29;;;;;;;2.30;2.10;;;2.90;99.90;2.60;100244.00;;;;4903500;28;88714;-70
2023/12/31 00:24:55;;;;;;;4.20;2.37;;;2.80;99.90;2.50;100261.00;;;;4905256;28;88069;-72
2023/12/31 00:27:21;;;;;;;2.40;2.00;;;2.80;99.90;2.50;100242.00;;;;4902981;28;110488;-70
2023/12/31 00:29:48;;;;;;;3.20;2.07;;;2.80;99.90;2.50;100238.00;;;;4903966;28;107477;-70
2023/12/31 00:32:15;;;;;;;2.33;1.50;;;2.80;99.90;2.50;100237.00;;;;4907381;28;88011;-70
2023/12/31 00:34:41;;;;;;;2.17;1.97;;;2.80;99.90;2.60;100236.00;;;;4907992;28;88281;-70
2023/12/31 00:37:07;;;;;;;1.73;1.53;;;2.80;99.90;2.60;100230.00;;;;4906860;28;88808;-70
2023/12/31 00:39:32;;;;;;;3.70;2.17;;;2.80;99.90;2.60;100229.00;;;;4904733;28;108454;-71
2023/12/31 00:41:58;;;;;;;1.90;1.63;;;2.90;99.90;2.70;100224.00;;;;4906898;28;117730;-70
2023/12/31 00:44:24;;;;;;;2.43;1.83;;;2.90;99.90;2.70;100230.00;;;;4907039;28;117771;-70
2023/12/31 00:46:50;;;;;;;5.07;1.93;;;3.00;99.90;2.70;100227.00;;;;4912280;28;109537;-70
2023/12/31 00:49:16;;;;;;;1.60;1.50;;;3.00;99.90;2.80;100226.00;;;;4911336;28;88255;-71
2023/12/31 00:51:43;;;;;;;2.57;2.37;;;3.00;99.90;2.80;100229.00;;;;4905572;28;109718;-68
2023/12/31 00:54:09;;;;;;;3.87;1.87;;;3.10;99.90;2.90;100227.00;;;;4905874;28;102879;-68
2023/12/31 00:56:35;;;;;;;2.00;1.80;;;3.20;99.90;2.90;100239.00;;;;4905576;28;88133;-69
2023/12/31 00:59:02;;;;;;;2.10;1.57;;;3.20;99.90;3.00;100234.00;;;;4906321;28;89099;-68
2023/12/31 01:01:28;;;;;;;5.17;2.37;;;3.20;99.90;3.00;100233.00;;;;4906248;28;88973;-69
2023/12/31 01:03:54;;;;;;;2.60;1.80;;;3.30;99.90;3.10;100229.00;;;;4909885;28;88052;-68
2023/12/31 01:06:19;;;;;;;2.40;2.07;;;3.40;99.90;3.10;100228.00;;;;4909287;28;109559;-69
2023/12/31 01:08:45;;;;;;;2.37;1.20;;;3.40;99.90;3.10;100234.00;;;;4908658;28;107823;-68
2023/12/31 01:11:11;;;;;;;3.07;2.67;;;3.30;99.90;3.10;100244.00;;;;4907045;28;88101;-68
2023/12/31 01:13:37;;;;;;;3.00;2.30;;;3.30;99.90;3.10;100235.00;;;;4903950;28;110961;-68
2023/12/31 01:16:04;;;;;;;1.60;1.50;;;3.40;99.90;3.20;100235.00;;;;4906879;28;90562;-68
2023/12/31 01:18:30;;;;;;;2.07;1.43;;;3.40;99.90;3.20;100237.00;;;;4906857;28;87408;-69
2023/12/31 01:20:56;;;;;;;1.67;1.57;;;4.00;99.90;3.20;100235.00;;;;4905719;28;102318;-69
2023/12/31 01:23:22;;;;;;;1.87;1.40;;;3.70;99.90;3.20;100233.00;;;;4904658;28;88369;-69
2023/12/31 01:25:47;;;;;;;1.50;1.40;;;3.40;99.90;3.20;100233.00;;;;4901969;28;109021;-69
2023/12/31 01:28:13;;;;;;;3.03;1.77;;;3.40;99.90;3.20;100233.00;;;;4905321;28;109262;-69
2023/12/31 01:30:39;;;;;;;2.80;1.50;;;4.10;99.90;3.20;100228.00;;;;4904567;28;117762;-69
2023/12/31 01:33:05;;;;;;;2.80;1.47;;;3.50;99.90;3.20;100228.00;;;;4906548;28;103617;-68
2023/12/31 01:35:30;;;;;;;1.70;1.40;;;3.50;99.90;3.20;100219.00;;;;4905205;28;109312;-67
2023/12/31 01:37:56;;;;;;;2.10;1.27;;;3.50;99.90;3.20;100206.00;;;;4903894;28;108855;-69
2023/12/31 01:40:22;;;;;;;4.30;1.70;;;3.50;99.90;3.20;100209.00;;;;4905375;28;117948;-69
2023/12/31 01:42:47;;;;;;;2.67;1.23;;;3.40;99.90;3.20;100215.00;;;;4908948;28;116827;-68
2023/12/31 01:45:14;;;;;;;1.50;1.40;;;3.40;99.90;3.20;100211.00;;;;4906593;28;110332;-69
2023/12/31 01:47:40;;;;;;;3.13;1.57;;;3.50;99.90;3.20;100215.00;;;;4907721;28;87789;-67
2023/12/31 01:50:07;;;;;;;2.60;1.23;;;3.50;99.90;3.20;100209.00;;;;4907444;28;89486;-68
2023/12/31 01:52:34;;;;;;;1.80;1.10;;;3.30;99.90;3.20;100208.00;;;;4922801;28;88219;-68
2023/12/31 01:55:06;;;;;;;2.50;2.30;;;3.50;99.90;3.20;100199.00;;;;4894282;28;88056;-68
2023/12/31 01:57:33;;;;;;;0.90;0.90;;;3.40;99.90;3.20;100201.00;;;;4911394;28;87710;-68
2023/12/31 02:00:00;;;;;;;2.93;1.47;;;3.50;99.90;3.20;100205.00;;;;4905220;28;88822;-68
2023/12/31 02:02:26;;;;;;;1.90;1.37;;;3.40;99.90;3.20;100202.00;;;;4904460;28;105255;-68
2023/12/31 02:04:52;;;;;;;0.77;0.77;;;4.10;99.90;3.20;100187.00;;;;4919905;28;111730;-68
2023/12/31 02:07:18;;;;;;;1.93;1.57;;;3.40;99.90;3.20;100191.00;;;;4906274;28;88407;-68
2023/12/31 02:09:44;;;;;;;2.37;0.93;;;3.40;99.90;3.20;100190.00;;;;4905458;28;88065;-68
2023/12/31 02:12:10;;;;;;;1.83;1.30;;;3.50;99.90;3.20;100194.00;;;;4906472;28;89177;-69
2023/12/31 02:14:36;;;;;;;1.37;1.27;;;3.40;99.90;3.20;100184.00;;;;4917042;28;90154;-68
2023/12/31 02:17:02;;;;;;;1.57;1.20;;;3.50;99.90;3.20;100187.00;;;;4905380;28;88893;-68
2023/12/31 02:19:27;;;;;;;3.83;1.60;;;3.40;99.90;3.10;100176.00;;;;4906631;28;88607;-68
2023/12/31 02:21:54;;;;;;;2.30;1.30;;;3.40;99.90;3.10;100169.00;;;;4905998;28;108856;-68
2023/12/31 02:24:22;;;;;;;2.27;1.20;;;3.40;99.90;3.10;100163.00;;;;4922810;28;109669;-68
2023/12/31 02:26:51;;;;;;;1.90;1.57;;;3.40;99.90;3.10;100158.00;;;;4905612;28;100277;-68
2023/12/31 02:29:16;;;;;;;1.17;0.93;;;3.30;99.90;3.10;100166.00;;;;4900735;28;88526;-68
2023/12/31 02:31:42;;;;;;;2.43;1.33;;;3.30;99.90;3.10;100157.00;;;;4903747;28;118485;-68
2023/12/31 02:34:08;;;;;;;2.23;1.20;;;3.30;99.90;3.00;100154.00;;;;4901627;28;110844;-68
2023/12/31 02:36:33;;;;;;;2.73;0.83;;;3.30;99.90;3.00;100155.00;;;;4905994;28;87786;-68
2023/12/31 02:38:59;;;;;;;1.37;1.27;;;3.40;99.90;3.00;100163.00;;;;4904893;28;116059;-68
2023/12/31 02:41:37;;;;;;;1.20;0.80;;;3.20;99.90;3.00;100154.00;;;;4901413;28;116952;-69
2023/12/31 02:44:02;;;;;;;5.90;1.37;;;3.40;99.90;3.00;100133.00;;;;4903835;28;109261;-68
2023/12/31 02:46:28;;;;;;;1.33;1.13;;;3.20;99.90;3.00;100138.00;;;;4903318;28;101815;-68
2023/12/31 02:48:54;;;;;;;2.83;1.40;;;3.30;99.90;3.00;100131.00;;;;4901300;28;118319;-68
2023/12/31 02:51:19;;;;;;;4.50;1.60;;;3.20;99.90;2.90;100139.00;;;;4901641;28;117440;-68
2023/12/31 02:53:45;;;;;;;2.53;1.37;;;3.20;99.90;2.90;100131.00;;;;4900279;28;109697;-68
2023/12/31 02:56:11;;;;;;;1.40;1.23;;;3.20;99.90;2.90;100128.00;;;;4903343;28;108460;-68
2023/12/31 02:58:36;;;;;;;2.53;1.10;;;3.20;99.90;2.90;100123.00;;;;4901873;28;94896;-70
2023/12/31 03:01:02;;;;;;;1.40;0.93;;;3.10;99.90;2.90;100123.00;;;;4902480;28;115947;-70
2023/12/31 03:03:30;;;;;;;1.47;1.00;;;3.20;99.90;2.90;100125.00;;;;4902832;28;101221;-70
2023/12/31 03:05:56;;;;;;;1.23;1.07;;;3.70;99.90;2.90;100115.00;;;;4901667;28;88011;-70
2023/12/31 03:08:21;;;;;;;1.20;1.20;;;3.20;99.90;2.90;100116.00;;;;4899496;28;118930;-70
2023/12/31 03:10:47;;;;;;;2.57;1.80;;;3.10;99.90;2.90;100110.00;;;;4903484;28;88166;-70
2023/12/31 03:13:13;;;;;;;1.53;1.10;;;3.10;99.90;2.80;100113.00;;;;4901297;28;109699;-70
2023/12/31 03:15:39;;;;;;;1.90;1.20;;;3.10;99.90;2.90;100108.00;;;;4888184;28;108084;-69
2023/12/31 03:18:04;;;;;;;5.00;1.00;;;3.20;99.90;2.90;100102.00;;;;4902797;28;115153;-68
2023/12/31 03:20:30;;;;;;;1.03;0.80;;;3.20;99.90;2.90;100113.00;;;;4902275;28;117341;-68
2023/12/31 03:22:55;;;;;;;1.67;1.07;;;3.10;99.90;2.90;100104.00;;;;4902198;28;110360;-69
2023/12/31 03:25:21;;;;;;;1.13;0.97;;;3.20;99.90;2.90;100097.00;;;;4903971;28;106871;-71
2023/12/31 03:27:47;;;;;;;1.70;1.27;;;3.10;99.90;2.90;100105.00;;;;4902663;28;118387;-70
2023/12/31 03:30:13;;;;;;;2.00;1.33;;;3.10;99.90;2.90;100098.00;;;;4902499;28;103725;-68
2023/12/31 03:32:39;;;;;;;1.20;1.10;;;3.20;99.90;2.90;100090.00;;;;4902834;28;87884;-69
2023/12/31 03:35:05;;;;;;;1.40;1.30;;;3.20;99.90;2.90;100094.00;;;;4892509;28;88403;-68
2023/12/31 03:37:30;;;;;;;2.37;0.60;;;3.20;99.90;3.00;100094.00;;;;4907486;28;106600;-69
2023/12/31 03:39:56;;;;;;;0.90;0.90;;;3.20;99.90;3.00;100085.00;;;;4898216;28;117862;-69
2023/12/31 03:42:22;;;;;;;0.80;0.80;;;3.30;99.90;3.00;100087.00;;;;4903212;28;105409;-69
2023/12/31 03:44:48;;;;;;;1.93;1.30;;;3.20;99.90;3.00;100086.00;;;;4905284;28;110842;-71
2023/12/31 03:47:13;;;;;;;1.53;1.43;;;3.30;99.90;3.10;100084.00;;;;4902317;28;98560;-72
2023/12/31 03:49:39;;;;;;;1.23;1.13;;;3.70;99.90;3.10;100073.00;;;;4901619;28;88000;-69
2023/12/31 03:52:06;;;;;;;5.13;0.90;;;3.40;99.90;3.10;100078.00;;;;4902060;28;111403;-69
2023/12/31 03:54:32;;;;;;;3.50;1.10;;;3.30;99.90;3.10;100085.00;;;;4906559;28;87977;-69
2023/12/31 03:56:58;;;;;;;1.30;1.20;;;3.40;99.90;3.20;100080.00;;;;4905777;28;89495;-69
2023/12/31 03:59:24;;;;;;;1.90;1.20;;;3.30;99.90;3.20;100076.00;;;;4905681;28;99596;-70
2023/12/31 04:01:56;;;;;;;2.00;1.37;;;3.40;99.90;3.20;100049.00;;;;4905212;28;87970;-69
2023/12/31 04:04:21;;;;;;;3.13;1.40;;;3.50;99.90;3.20;100064.00;;;;4901767;28;88052;-70
2023/12/31 04:06:47;;;;;;;1.70;1.20;;;3.40;99.90;3.20;100051.00;;;;4901699;28;117867;-70
2023/12/31 04:09:13;;;;;;;1.97;1.40;;;3.70;99.90;3.20;100049.00;;;;4901854;28;115089;-70
2023/12/31 04:11:38;;;;;;;1.87;1.17;;;3.50;99.90;3.20;100053.00;;;;4903311;28;87979;-69
2023/12/31 04:14:04;;;;;;;1.63;0.93;;;3.50;99.90;3.20;100044.00;;;;4903449;28;87885;-70
2023/12/31 04:16:30;;;;;;;1.40;1.20;;;3.50;99.90;3.20;100048.00;;;;4915674;28;117756;-70
2023/12/31 04:18:55;;;;;;;2.63;1.80;;;3.50;99.90;3.20;100044.00;;;;4903621;28;118452;-70
2023/12/31 04:21:21;;;;;;;2.07;1.40;;;3.50;99.90;3.20;100035.00;;;;4901841;28;110920;-70
2023/12/31 04:23:47;;;;;;;2.67;1.60;;;3.50;99.90;3.20;100044.00;;;;4901284;28;108803;-70
2023/12/31 04:26:12;;;;;;;3.47;1.50;;;3.80;99.90;3.20;100028.00;;;;4904132;28;115840;-69
2023/12/31 04:28:38;;;;;;;4.57;1.10;;;3.40;99.90;3.20;100026.00;;;;4915104;28;116958;-69
2023/12/31 04:31:04;;;;;;;1.80;1.30;;;3.50;99.90;3.20;100026.00;;;;4901524;28;110448;-69
2023/12/31 04:33:29;;;;;;;2.87;1.70;;;3.40;99.90;3.20;100027.00;;;;4901118;28;97413;-69
2023/12/31 04:35:55;;;;;;;1.47;1.33;;;3.50;99.90;3.20;100015.00;;;;4900239;28;118275;-69
2023/12/31 04:38:21;;;;;;;2.30;2.10;;;3.30;99.90;3.10;100021.00;;;;4900926;28;116562;-70
2023/12/31 04:40:46;;;;;;;2.77;1.10;;;4.30;99.90;3.10;100010.00;;;;4898736;28;108975;-70
2023/12/31 04:43:12;;;;;;;3.17;1.47;;;3.30;99.90;3.00;99997.00;;;;4902410;28;109972;-70
2023/12/31 04:45:38;;;;;;;3.27;2.30;;;3.30;99.90;3.00;100009.00;;;;4901593;28;89171;-69
2023/12/31 04:48:04;;;;;;;9.77;3.43;;;3.30;99.90;3.00;100009.00;;;;4900541;28;117915;-70
2023/12/31 04:50:29;;;;;;;2.67;1.90;;;3.30;99.90;3.00;100003.00;;;;4890259;28;101800;-70
2023/12/31 04:52:55;;;;;;;2.53;2.17;;;3.30;99.90;3.00;99999.00;;;;4902665;28;108390;-70
2023/12/31 04:55:22;;;;;;;2.23;1.83;;;3.20;99.90;3.00;99995.00;;;;4900726;28;88000;-70
2023/12/31 04:57:49;;;;;;;3.73;1.90;;;3.20;99.90;3.00;100002.00;;;;4902794;28;88819;-70
2023/12/31 05:00:15;;;;;;;2.53;1.93;;;3.30;99.90;2.90;99995.00;;;;4902758;28;89116;-70
2023/12/31 05:02:41;;;;;;;3.37;2.13;;;3.20;99.90;2.90;99989.00;;;;4901969;28;92442;-70
2023/12/31 05:05:07;;;;;;;1.90;1.37;;;3.20;99.90;2.90;99981.00;;;;4902726;28;90127;-70
2023/12/31 05:07:33;;;;;;;9.83;2.67;;;3.20;99.90;2.90;99983.00;;;;4900396;28;89977;-70
2023/12/31 05:09:58;;;;;;;2.30;1.70;;;3.20;99.90;3.00;99975.00;;;;4903605;28;105126;-70
2023/12/31 05:12:24;;;;;;;1.07;1.07;;;3.20;99.90;2.90;99975.00;;;;4903207;28;87968;-69
2023/12/31 05:14:50;;;;;;;2.40;1.97;;;3.90;99.90;2.90;99968.00;;;;4900369;28;117773;-69
2023/12/31 05:17:18;;;;;;;2.13;1.53;;;3.10;99.90;2.80;99959.00;;;;4901494;28;118069;-69
2023/12/31 05:19:45;;;;;;;8.13;2.40;;;3.20;99.90;2.80;99958.00;;;;4921403;28;109770;-70
2023/12/31 05:22:11;;;;;;;1.57;1.47;;;3.10;99.90;2.70;99952.00;;;;4904588;28;87092;-70
2023/12/31 05:24:37;;;;;;;2.40;2.10;;;3.10;99.90;2.70;99953.00;;;;4901525;28;116414;-70
2023/12/31 05:27:03;;;;;;;4.67;2.10;;;3.00;99.90;2.70;99946.00;;;;4904272;28;118312;-69
2023/12/31 05:29:28;;;;;;;5.03;2.23;;;3.00;99.90;2.70;99946.00;;;;4904213;28;101475;-69
2023/12/31 05:31:54;;;;;;;2.73;2.00;;;3.00;99.90;2.70;99934.00;;;;4903944;28;109254;-70
2023/12/31 05:34:20;;;;;;;3.37;2.17;;;3.00;99.90;2.70;99936.00;;;;4905927;28;118389;-69
2023/12/31 05:36:45;;;;;;;4.70;3.07;;;3.00;99.90;2.80;99937.00;;;;4905143;28;99971;-70
2023/12/31 05:39:12;;;;;;;3.93;2.07;;;2.70;99.90;2.80;99941.00;;;;4905564;28;89157;-70
2023/12/31 05:41:38;;;;;;;2.80;1.40;;;3.10;99.90;2.90;99935.00;;;;4903496;28;108137;-70
2023/12/31 05:44:04;;;;;;;1.13;1.03;;;3.10;99.90;3.00;99938.00;;;;4902910;28;88906;-70
2023/12/31 05:46:29;;;;;;;2.60;1.70;;;3.20;99.90;3.00;99941.00;;;;4910515;28;88050;-70
2023/12/31 05:48:55;;;;;;;2.27;1.27;;;3.30;99.90;3.00;99937.00;;;;4908126;28;109446;-70
2023/12/31 05:51:21;;;;;;;2.20;1.93;;;3.30;99.90;3.10;99932.00;;;;4907277;28;90816;-70
2023/12/31 05:53:47;;;;;;;1.13;1.03;;;3.30;99.90;3.10;99938.00;;;;4905289;28;104330;-70
2023/12/31 05:56:12;;;;;;;2.00;1.33;;;4.30;99.90;3.10;99936.00;;;;4903922;28;88929;-70
2023/12/31 05:58:42;;;;;;;2.37;1.70;;;3.40;99.90;3.20;99919.00;;;;4907456;28;98997;-70
2023/12/31 06:01:08;;;;;;;1.30;1.20;;;3.40;99.90;3.20;99929.00;;;;4904706;28;87927;-70
2023/12/31 06:03:34;;;;;;;3.40;1.30;;;3.40;99.90;3.20;99926.00;;;;4906193;28;87666;-70
2023/12/31 06:06:00;;;;;;;2.97;1.63;;;3.40;99.90;3.20;99927.00;;;;4901806;28;118067;-70
2023/12/31 06:08:25;;;;;;;2.17;1.43;;;4.20;99.90;3.30;99922.00;;;;4902774;28;87919;-70
2023/12/31 06:10:51;;;;;;;6.80;1.77;;;3.50;99.90;3.30;99922.00;;;;4906460;28;108014;-70
2023/12/31 06:13:17;;;;;;;1.73;1.37;;;3.60;99.90;3.30;99926.00;;;;4901178;28;90940;-70
2023/12/31 06:15:45;;;;;;;1.93;1.73;;;3.50;99.90;3.30;99925.00;;;;4903195;28;88725;-70
2023/12/31 06:18:11;;;;;;;2.10;1.67;;;3.60;99.90;3.40;99914.00;;;;4903255;28;110829;-70
2023/12/31 06:20:37;;;;;;;1.27;1.03;;;3.60;99.90;3.40;99912.00;;;;4903181;28;107031;-70
2023/12/31 06:23:03;;;;;;;7.40;1.67;;;3.60;99.90;3.40;99909.00;;;;4902002;28;117609;-70
2023/12/31 06:25:28;;;;;;;1.17;1.07;;;3.60;99.90;3.30;99906.00;;;;4900603;28;104243;-70
2023/12/31 06:27:56;;;;;;;1.60;1.47;;;3.60;99.90;3.30;99899.00;;;;4901008;28;110451;-70
2023/12/31 06:30:22;;;;;;;1.87;1.53;;;4.50;99.90;3.20;99897.00;;;;4899671;28;87992;-70
2023/12/31 06:32:48;;;;;;;2.90;2.10;;;3.60;99.90;3.20;99901.00;;;;4900842;28;87995;-70
2023/12/31 06:35:14;;;;;;;2.73;2.30;;;3.50;99.90;3.10;99901.00;;;;4899776;28;116996;-71
2023/12/31 06:37:40;;;;;;;5.00;2.67;;;3.40;99.90;3.00;99900.00;;;;4906601;28;88112;-70
2023/12/31 06:40:08;;;;;;;7.77;3.60;;;3.40;99.90;3.00;99896.00;;;;4901661;28;88294;-70
2023/12/31 06:42:33;;;;;;;5.57;3.73;;;3.30;99.90;2.90;99899.00;;;;4917634;28;89208;-70
2023/12/31 06:44:59;;;;;;;3.50;2.00;;;3.90;99.90;2.80;99902.00;;;;4901580;28;118446;-70
2023/12/31 06:47:25;;;;;;;1.53;1.37;;;3.20;99.90;2.80;99888.00;;;;4900855;28;110787;-70
2023/12/31 06:49:52;;;;;;;2.37;1.73;;;3.00;99.90;2.70;99883.00;;;;4901814;28;107802;-70
2023/12/31 06:52:18;;;;;;;4.47;3.97;;;3.00;99.90;2.70;99872.00;;;;4899793;28;88396;-70
2023/12/31 06:54:44;;;;;;;4.77;2.77;;;3.00;99.90;2.60;99876.00;;;;4898715;28;114347;-70
2023/12/31 06:57:09;;;;;;;2.70;1.60;;;3.00;99.90;2.60;99886.00;;;;4898770;28;100574;-70
2023/12/31 06:59:35;;;;;;;1.37;1.20;;;2.90;99.90;2.60;99895.00;;;;4901369;28;86868;-69
2023/12/31 07:02:00;;;;;;;2.93;1.63;;;2.90;99.90;2.50;99887.00;;;;4899248;28;113265;-69
2023/12/31 07:04:26;;;;;;;1.60;1.30;;;2.80;99.90;2.50;99883.00;;;;4899398;28;117503;-70
2023/12/31 07:06:52;;;;;;;1.63;1.00;;;2.70;99.90;2.40;99883.00;;;;4905161;28;109186;-69
2023/12/31 07:09:17;;;;;;;3.83;1.83;;;2.80;99.90;2.40;99890.00;;;;4907808;28;108018;-71
2023/12/31 07:11:46;;;;;;;7.43;2.30;;;2.70;99.90;2.40;99883.00;;;;4903153;28;116909;-69
2023/12/31 07:14:12;;;;;;;3.70;2.20;;;2.70;99.90;2.30;99877.00;;;;4902293;28;89984;-71
2023/12/31 07:16:38;;;;;;;1.30;1.20;;;2.70;99.90;2.30;99876.00;;;;4905244;28;112570;-72
2023/12/31 07:19:03;;;;;;;3.73;1.40;;;2.60;99.90;2.30;99879.00;;;;4901833;28;108518;-71
2023/12/31 07:21:29;;;;;;;2.27;1.80;;;2.70;99.90;2.40;99867.00;;;;4902603;28;88085;-71
2023/12/31 07:23:55;;;;;;;1.97;1.73;;;2.70;99.90;2.40;99874.00;;;;4903374;28;116651;-71
2023/12/31 07:26:26;;;;;;;3.93;1.97;;;2.60;99.90;2.50;99878.00;;;;4904142;28;95112;-71
2023/12/31 07:28:52;;;;;;;1.77;1.63;;;2.70;99.90;2.60;99878.00;;;;4903291;28;87733;-71
2023/12/31 07:31:18;;;;;;;2.47;1.53;;;2.80;99.90;2.70;99876.00;;;;4902147;28;88972;-70
2023/12/31 07:33:44;;;;;;;1.93;1.73;;;2.90;99.90;2.80;99873.00;;;;4904500;28;109003;-70
2023/12/31 07:36:09;;;;;;;2.90;2.03;;;3.10;99.90;3.00;99872.00;;;;4902863;28;111510;-70
2023/12/31 07:38:35;;;;;;;1.87;1.23;;;3.10;99.90;3.10;99869.00;;;;4902699;28;109115;-70
2023/12/31 07:41:01;;;;;;;2.00;1.80;;;3.30;99.90;3.20;99863.00;;;;4902255;28;118002;-70
2023/12/31 07:43:26;;;;;;;1.70;1.40;;;3.50;99.90;3.40;99871.00;;;;4901922;28;117367;-69
2023/12/31 07:45:52;;;;;;;3.37;1.87;;;3.50;99.90;3.50;99868.00;;;;4903500;28;89413;-69
2023/12/31 07:48:19;;;;;;;2.00;1.77;;;3.70;99.90;3.70;99874.00;;;;4904633;28;108759;-70
2023/12/31 07:50:44;;;;;;;2.33;2.13;;;3.90;99.90;3.90;99872.00;;;;4905143;28;88702;-72
2023/12/31 07:53:10;;;;;;;3.83;1.30;;;4.10;99.90;4.10;99875.00;;;;4901561;28;116181;-70
2023/12/31 07:55:36;;;;;;;1.23;1.00;;;4.20;99.90;4.20;99867.00;;;;4901870;28;89145;-69
2023/12/31 07:58:01;;;;;;;2.10;1.73;;;4.30;99.90;4.40;99877.00;;;;4902196;28;100164;-70
2023/12/31 08:00:27;;;;;;;2.53;2.17;;;4.60;99.90;4.60;99879.00;;;;4902734;28;118099;-69
2023/12/31 08:02:53;;;;;;;3.53;2.27;;;4.70;99.90;4.90;99876.00;;;;4900763;28;116616;-70
2023/12/31 08:05:18;;;;;;;2.63;1.40;;;5.80;99.90;5.10;99889.00;;;;4901330;28;110602;-69
2023/12/31 08:07:44;;;;;;;4.03;1.73;;;5.50;99.90;5.30;99868.00;;;;4900418;28;112001;-70
2023/12/31 08:10:11;;;;;;;5.50;2.07;;;5.40;99.90;5.50;99871.00;;;;4902678;28;117891;-69
2023/12/31 08:12:37;;;;;;;5.10;2.40;;;5.60;99.90;5.70;99872.00;;;;4912727;28;89721;-69
2023/12/31 08:15:04;;;;;;;3.40;1.30;;;5.80;99.90;5.80;99875.00;;;;4902805;28;90473;-70
2023/12/31 08:17:30;;;;;;;2.67;1.80;;;6.00;99.90;6.00;99871.00;;;;4902237;28;88093;-70
2023/12/31 08:19:55;;;;;;;1.27;1.17;;;6.30;99.90;6.10;99866.00;;;;4904366;28;118961;-70
2023/12/31 08:22:21;;;;;;;5.70;1.17;;;6.30;99.90;6.20;99869.00;;;;4908192;28;89882;-70
2023/12/31 08:24:49;;;;;;;2.23;1.77;;;6.30;99.90;6.30;99873.00;;;;4902558;28;109932;-70
2023/12/31 08:27:15;;;;;;;4.03;1.77;;;6.50;99.90;6.40;99860.00;;;;4902349;28;91484;-70
2023/12/31 08:29:40;;;;;;;2.90;1.63;;;6.60;99.90;6.50;99864.00;;;;4900273;28;117717;-68
2023/12/31 08:32:06;;;;;;;5.37;1.70;;;7.00;99.90;6.60;99859.00;;;;4902571;28;104212;-70
2023/12/31 08:34:32;;;;;;;2.10;1.33;;;7.20;99.90;6.60;99868.00;;;;4903126;28;112303;-68
2023/12/31 08:36:57;;;;;;;2.20;1.80;;;6.80;99.90;6.70;99865.00;;;;4902928;28;108184;-70
2023/12/31 08:39:23;;;;;;;2.83;1.43;;;6.80;99.90;6.70;99854.00;;;;4902005;28;118948;-70
2023/12/31 08:41:49;;;;;;;1.20;1.10;;;6.80;99.90;6.70;99860.00;;;;4905189;28;116963;-70
2023/12/31 08:44:14;;;;;;;2.80;1.57;;;7.10;99.90;6.80;99853.00;;;;4907890;28;88842;-71
2023/12/31 08:46:55;;;;;;;5.60;1.97;;;6.90;99.90;6.80;99851.00;;;;4905466;28;107504;-69
2023/12/31 08:49:29;;;;;;;4.83;1.57;;;7.20;99.90;6.90;99839.00;;;;4905729;28;116664;-70
2023/12/31 08:51:55;;;;;;;2.20;1.20;;;7.00;99.90;7.00;99845.00;;;;4904832;28;88543;-68
2023/12/31 08:54:20;;;;;;;1.60;1.50;;;7.10;99.90;7.00;99851.00;;;;4910804;28;87762;-68
2023/12/31 08:56:46;;;;;;;1.73;1.40;;;7.10;99.90;7.10;99842.00;;;;4924814;28;108502;-70
2023/12/31 08:59:12;;;;;;;5.07;2.13;;;7.20;99.90;7.20;99841.00;;;;4905725;28;118400;-69
2023/12/31 09:01:37;;;;;;;1.47;1.30;;;7.40;99.90;7.30;99840.00;;;;4907492;28;92085;-71
2023/12/31 09:04:03;;;;;;;1.87;1.33;;;7.40;99.90;7.40;99841.00;;;;4906134;28;110463;-70
2023/12/31 09:06:30;;;;;;;1.37;1.07;;;7.50;99.90;7.50;99841.00;;;;4904858;28;99612;-72
2023/12/31 09:08:56;;;;;;;7.07;1.80;;;7.50;99.90;7.60;99824.00;;;;4889287;28;109854;-69
2023/12/31 09:11:22;;;;;;;2.33;1.10;;;7.60;99.90;7.70;99826.00;;;;4907497;28;89397;-70
2023/12/31 09:13:48;;;;;;;6.13;3.57;;;7.80;99.90;7.80;99841.00;;;;4909884;28;88093;-69
2023/12/31 09:16:14;;;;;;;3.07;1.60;;;7.90;99.90;7.90;99834.00;;;;4906233;28;91929;-68
2023/12/31 09:18:39;;;;;;;2.23;1.60;;;8.00;99.90;8.00;99835.00;;;;4907824;28;116830;-69
2023/12/31 09:21:05;;;;;;;1.67;1.40;;;8.10;99.90;8.10;99830.00;;;;4905897;28;118721;-70
2023/12/31 09:23:31;;;;;;;3.57;1.53;;;8.20;99.90;8.10;99830.00;;;;4905672;28;109436;-68
2023/12/31 09:25:56;;;;;;;2.37;1.37;;;8.20;99.90;8.30;99811.00;;;;4906887;28;109869;-70
2023/12/31 09:28:22;;;;;;;2.03;1.30;;;8.40;99.90;8.40;99819.00;;;;4906569;28;105715;-68
2023/12/31 09:30:48;;;;;;;4.67;1.63;;;8.40;99.90;8.50;99826.00;;;;4906921;28;95176;-70
2023/12/31 09:33:13;;;;;;;3.10;1.30;;;8.60;99.90;8.60;99811.00;;;;4901056;28;110434;-70
2023/12/31 09:35:39;;;;;;;2.10;1.43;;;8.70;99.90;8.60;99810.00;;;;4905714;28;109146;-71
2023/12/31 09:38:05;;;;;;;1.47;1.17;;;8.70;99.90;8.70;99800.00;;;;4895115;28;117755;-68
2023/12/31 09:40:31;;;;;;;2.10;1.43;;;8.80;99.90;8.80;99797.00;;;;4906699;28;116108;-68
2023/12/31 09:42:58;;;;;;;6.43;1.80;;;9.20;99.90;8.90;99793.00;;;;4906008;28;109649;-68
2023/12/31 09:45:24;;;;;;;1.43;1.13;;;8.90;99.90;9.00;99792.00;;;;4918939;28;87987;-69
2023/12/31 09:47:51;;;;;;;2.97;0.97;;;9.00;99.90;9.10;99793.00;;;;4906701;28;105685;-70
2023/12/31 09:50:21;;;;;;;2.27;1.40;;;9.10;99.90;9.20;99786.00;;;;4890883;28;89619;-70
2023/12/31 09:52:48;;;;;;;1.40;0.90;;;9.20;99.90;9.20;99795.00;;;;4906180;28;87985;-69
2023/12/31 09:55:18;;;;;;;3.03;1.43;;;9.30;99.90;9.30;99786.00;;;;4904862;28;88228;-69
2023/12/31 09:57:47;;;;;;;1.53;1.20;;;9.30;99.90;9.30;99766.00;;;;4917848;28;89076;-68
2023/12/31 10:00:13;;;;;;;3.80;1.43;;;9.30;99.90;9.40;99775.00;;;;4905704;28;89337;-70
2023/12/31 10:02:39;;;;;;;1.23;1.13;;;9.50;99.90;9.50;99762.00;;;;4905809;28;92267;-70
2023/12/31 10:05:06;;;;;;;3.20;1.43;;;9.50;99.90;9.70;99764.00;;;;4905323;28;108391;-67
2023/12/31 10:07:32;;;;;;;3.80;1.60;;;9.70;99.90;9.80;99758.00;;;;4907669;28;89003;-68
2023/12/31 10:09:59;;;;;;;1.57;1.47;;;9.70;99.90;9.80;99762.00;;;;4905434;28;115799;-69
2023/12/31 10:12:27;;;;;;;2.60;1.40;;;9.80;99.90;9.80;99744.00;;;;4909212;28;89963;-70
2023/12/31 10:14:53;;;;;;;2.10;1.80;;;9.80;99.90;9.70;99747.00;;;;4910669;28;87391;-69
2023/12/31 10:17:20;;;;;;;2.97;1.77;;;9.80;99.90;9.70;99746.00;;;;4905501;28;89192;-67
2023/12/31 10:19:45;;;;;;;3.03;1.33;;;9.70;99.90;9.70;99736.00;;;;4906530;28;108413;-67
2023/12/31 10:22:13;;;;;;;1.93;0.70;;;9.70;99.90;9.60;99727.00;;;;4907220;28;91593;-69
2023/12/31 10:24:39;;;;;;;1.63;1.10;;;9.70;99.90;9.60;99723.00;;;;4905199;28;87873;-70
2023/12/31 10:27:06;;;;;;;2.43;1.87;;;9.60;99.90;9.60;99718.00;;;;4902908;28;104624;-67
2023/12/31 10:29:36;;;;;;;1.10;1.00;;;9.70;99.90;9.60;99705.00;;;;4920351;28;87858;-68
2023/12/31 10:32:03;;;;;;;3.00;1.80;;;9.70;99.90;9.60;99701.00;;;;4918317;28;88244;-70
2023/12/31 10:34:29;;;;;;;1.67;1.30;;;9.70;99.90;9.60;99700.00;;;;4907481;28;87858;-69
2023/12/31 10:37:06;;;;;;;1.47;1.17;;;9.70;99.90;9.70;99695.00;;;;4919651;28;104435;-70
2023/12/31 10:39:39;;;;;;;2.40;1.47;;;9.70;99.90;9.70;99691.00;;;;4911696;28;89623;-67
2023/12/31 10:42:06;;;;;;;1.33;0.90;;;9.80;99.90;9.70;99680.00;;;;4906568;28;87982;-68
2023/12/31 10:44:37;;;;;;;3.23;1.80;;;9.80;99.90;9.70;99679.00;;;;4904132;28;87753;-68
2023/12/31 10:47:06;;;;;;;0.80;0.80;;;9.70;99.90;9.60;99672.00;;;;4920764;28;101552;-67
2023/12/31 10:49:33;;;;;;;2.93;1.70;;;9.60;99.90;9.60;99676.00;;;;4905134;28;89567;-69
2023/12/31 10:52:02;;;;;;;2.50;1.60;;;9.70;99.90;9.60;99673.00;;;;4905010;28;87966;-70
2023/12/31 10:54:46;;;;;;;1.13;0.83;;;9.60;99.90;9.70;99672.00;;;;4894033;28;87861;-69
2023/12/31 10:57:13;;;;;;;1.30;1.17;;;9.70;99.90;9.70;99667.00;;;;4903377;28;88167;-67